Terminal Aerodrome Forecast
Issued by NWS

Home | Current Version | Previous Version | Text Only | Print | Product List | Glossary On
Versions: 1 2 3 4 5 6 7 8 9 10 11 12 13
509
FTUS44 KTSA 230520
TAFRVS
TAF
KRVS 230520Z 2306/2406 33006KT P6SM SCT010 OVC020
     FM231500 36007KT P6SM BKN025
     FM232000 36008KT P6SM BKN050
     FM240000 36003KT P6SM SCT250=

USA.gov is the U.S. government's official web portal to all federal, state and local government web resources and services.